Time;durP1;ratioP1;P1;durP2;ratioP2;P2;SDS_P1;SDS_P2;PMS_P1;PMS_P2;Temp;Humidity;BMP_temperature;BMP_pressure;BME280_temperature;BME280_humidity;BME280_pressure;Samples;Min_cycle;Max_cycle;Signal;HPM_P1;HPM_P2
2022/07/16 00:02:18;;;;;;;10.45;5.05;;;;;;;14.77;69.81;102114.97;6155685;23;20020;-78
2022/07/16 00:04:43;;;;;;;13.20;5.57;;;;;;;14.80;69.11;102117.38;6155029;23;20025;-77
2022/07/16 00:07:08;;;;;;;9.88;5.10;;;;;;;14.91;69.02;102109.75;6155457;23;20001;-78
2022/07/16 00:09:34;;;;;;;9.43;5.13;;;;;;;15.02;69.03;102117.75;6155552;23;20001;-75
2022/07/16 00:11:59;;;;;;;11.30;5.35;;;;;;;14.97;68.40;102108.56;6155565;23;20011;-75
2022/07/16 00:14:24;;;;;;;11.10;4.95;;;;;;;15.03;68.57;102121.19;6155739;23;20006;-77
2022/07/16 00:16:50;;;;;;;11.07;5.50;;;;;;;14.95;68.85;102121.66;6156038;23;20392;-73
2022/07/16 00:19:15;;;;;;;12.10;5.60;;;;;;;14.91;69.60;102127.97;6155147;23;20109;-73
2022/07/16 00:21:42;;;;;;;13.43;5.03;;;;;;;14.79;69.28;102106.16;6153999;23;20013;-77
2022/07/16 00:24:08;;;;;;;12.60;4.95;;;;;;;14.85;70.01;102121.41;6154560;23;20001;-78
2022/07/16 00:26:34;;;;;;;9.98;4.97;;;;;;;14.84;70.10;102131.84;6155676;23;20001;-72
2022/07/16 00:28:59;;;;;;;12.48;4.90;;;;;;;14.88;70.20;102116.00;6155875;23;20056;-75
2022/07/16 00:31:25;;;;;;;10.07;5.05;;;;;;;14.89;71.32;102124.63;6155559;23;20010;-77
2022/07/16 00:33:50;;;;;;;16.02;5.35;;;;;;;14.96;70.47;102118.13;6155562;23;20081;-74
2022/07/16 00:36:15;;;;;;;12.00;4.50;;;;;;;15.02;70.51;102116.91;6129606;23;20048;-71
2022/07/16 00:38:41;;;;;;;9.20;4.57;;;;;;;15.01;70.29;102113.47;6155225;23;20005;-75
2022/07/16 00:41:16;;;;;;;9.07;4.32;;;;;;;15.06;71.33;102115.81;6155469;23;20080;-81
2022/07/16 00:43:50;;;;;;;10.15;5.15;;;;;;;15.05;70.65;102103.75;6154312;23;20079;-77
2022/07/16 00:46:16;;;;;;;11.10;5.50;;;;;;;15.14;70.66;102111.81;6153865;23;20009;-75
2022/07/16 00:48:43;;;;;;;9.38;5.65;;;;;;;15.16;70.08;102124.72;6153873;23;20013;-75
2022/07/16 00:51:09;;;;;;;11.48;5.72;;;;;;;15.25;69.47;102118.94;6155306;23;20022;-75
2022/07/16 00:53:35;;;;;;;13.70;6.00;;;;;;;15.19;69.37;102101.94;6155463;23;20412;-77
2022/07/16 00:56:01;;;;;;;14.48;5.32;;;;;;;15.36;69.58;102115.69;6155559;23;20360;-75
2022/07/16 00:58:26;;;;;;;10.23;5.30;;;;;;;15.38;68.52;102112.03;6155185;23;20462;-73
2022/07/16 01:00:52;;;;;;;15.23;6.13;;;;;;;15.42;68.20;102112.66;6155418;23;20033;-79
2022/07/16 01:03:17;;;;;;;11.00;6.13;;;;;;;15.45;68.42;102113.34;6155350;23;20009;-79
2022/07/16 01:05:43;;;;;;;10.85;5.45;;;;;;;15.30;68.12;102085.66;6155500;23;20001;-75
2022/07/16 01:08:09;;;;;;;10.82;5.40;;;;;;;15.49;68.64;102111.38;6155315;23;20010;-78
2022/07/16 01:10:35;;;;;;;13.65;6.45;;;;;;;15.38;68.08;102093.00;6155118;23;20009;-77
2022/07/16 01:13:02;;;;;;;15.52;6.55;;;;;;;15.44;68.45;102110.84;6155390;23;20041;-74
2022/07/16 01:15:28;;;;;;;10.07;5.72;;;;;;;15.44;68.03;102111.66;6155082;23;20006;-77
2022/07/16 01:17:53;;;;;;;15.90;6.18;;;;;;;15.43;68.50;102111.75;6154944;23;20029;-74
2022/07/16 01:20:19;;;;;;;9.07;5.47;;;;;;;15.41;68.10;102104.03;6153884;23;20092;-77
2022/07/16 01:22:46;;;;;;;11.38;5.80;;;;;;;15.43;67.77;102107.38;6155157;23;20343;-73
2022/07/16 01:25:11;;;;;;;13.20;6.53;;;;;;;15.44;67.54;102103.03;6154637;23;20007;-77
2022/07/16 01:27:38;;;;;;;12.25;6.35;;;;;;;15.40;67.45;102102.34;6154932;23;20076;-72
2022/07/16 01:30:05;;;;;;;11.18;6.03;;;;;;;15.30;68.06;102108.25;6154955;23;20028;-74
2022/07/16 01:32:30;;;;;;;12.73;6.00;;;;;;;15.27;67.97;102104.06;6155142;23;20010;-79
2022/07/16 01:34:55;;;;;;;13.73;6.60;;;;;;;15.21;68.25;102104.44;6154736;23;20141;-74
2022/07/16 01:37:21;;;;;;;10.95;5.85;;;;;;;15.23;68.13;102109.53;6154457;23;20005;-75
2022/07/16 01:39:46;;;;;;;9.13;5.80;;;;;;;15.23;68.22;102122.56;6154724;23;20006;-78
2022/07/16 01:42:11;;;;;;;10.82;6.47;;;;;;;15.21;68.19;102113.09;6155042;23;20016;-76
2022/07/16 01:44:37;;;;;;;14.48;6.32;;;;;;;15.24;68.58;102108.63;6154837;23;20023;-78
2022/07/16 01:47:04;;;;;;;10.32;6.18;;;;;;;15.22;68.30;102108.72;6154853;23;20009;-78
2022/07/16 01:49:35;;;;;;;12.00;6.47;;;;;;;15.21;68.30;102101.84;6154825;23;20005;-76
2022/07/16 01:52:09;;;;;;;13.00;5.90;;;;;;;15.21;68.34;102113.09;6154878;23;20001;-78
2022/07/16 01:54:39;;;;;;;12.40;6.20;;;;;;;15.15;69.05;102112.66;6155083;23;20005;-79
2022/07/16 01:57:05;;;;;;;12.63;6.80;;;;;;;15.07;69.17;102102.72;6154853;23;20375;-76
2022/07/16 01:59:30;;;;;;;14.32;6.60;;;;;;;15.02;69.65;102107.34;6154724;23;20016;-77
2022/07/16 02:01:55;;;;;;;13.65;6.60;;;;;;;14.98;69.70;102115.44;6155226;23;20084;-73
2022/07/16 02:04:21;;;;;;;13.20;6.57;;;;;;;14.95;70.09;102106.06;6157229;23;20064;-77
2022/07/16 02:06:46;;;;;;;16.48;6.80;;;;;;;14.89;70.52;102096.84;6154216;23;20028;-78
2022/07/16 02:09:11;;;;;;;11.95;6.40;;;;;;;14.96;70.31;102105.13;6157089;23;20434;-73
2022/07/16 02:11:37;;;;;;;13.23;6.88;;;;;;;14.96;70.45;102110.34;6156598;23;20001;-79
2022/07/16 02:14:02;;;;;;;13.00;6.53;;;;;;;14.86;70.18;102086.66;6157270;23;20036;-76
2022/07/16 02:16:27;;;;;;;10.05;6.70;;;;;;;14.92;70.64;102098.44;6157089;23;20005;-75
2022/07/16 02:18:53;;;;;;;15.70;7.07;;;;;;;14.90;70.56;102100.28;6130188;23;20005;-77
2022/07/16 02:21:18;;;;;;;12.50;7.18;;;;;;;14.92;70.76;102093.22;6156515;23;20078;-77
2022/07/16 02:23:43;;;;;;;12.57;7.20;;;;;;;14.96;70.50;102102.53;6156706;23;20005;-73
2022/07/16 02:26:09;;;;;;;14.27;7.15;;;;;;;15.00;69.86;102097.97;6156289;23;20008;-73
2022/07/16 02:28:34;;;;;;;14.52;7.00;;;;;;;15.03;70.48;102098.59;6156779;23;20086;-76
2022/07/16 02:30:59;;;;;;;11.05;6.75;;;;;;;15.07;70.28;102100.09;6155169;23;20006;-77
2022/07/16 02:33:24;;;;;;;12.38;7.38;;;;;;;15.01;69.59;102079.66;6156920;23;20009;-75
2022/07/16 02:35:50;;;;;;;16.75;7.45;;;;;;;15.09;69.60;102089.59;6155154;23;20013;-76
2022/07/16 02:38:15;;;;;;;14.45;8.75;;;;;;;15.05;69.73;102075.13;6156989;23;20427;-74
2022/07/16 02:40:42;;;;;;;13.10;8.50;;;;;;;15.17;69.46;102101.22;6156447;23;20013;-73
2022/07/16 02:43:09;;;;;;;13.52;8.50;;;;;;;15.17;69.16;102090.78;6156465;23;20069;-73
2022/07/16 02:45:37;;;;;;;14.63;8.52;;;;;;;15.23;69.37;102086.97;6154469;23;20084;-74
2022/07/16 02:48:03;;;;;;;15.18;9.95;;;;;;;15.21;69.53;102081.84;6156571;23;20009;-77
2022/07/16 02:50:29;;;;;;;16.60;9.60;;;;;;;15.25;68.55;102081.69;6156851;23;20052;-73
2022/07/16 02:52:55;;;;;;;18.00;10.25;;;;;;;15.21;68.41;102074.06;6156395;23;20005;-73
2022/07/16 02:55:20;;;;;;;15.98;9.73;;;;;;;15.36;68.55;102082.69;6156621;23;20080;-75
2022/07/16 02:57:46;;;;;;;17.92;10.60;;;;;;;15.36;68.71;102087.03;6156742;23;20005;-74
2022/07/16 03:00:13;;;;;;;20.17;10.45;;;;;;;15.36;68.62;102084.44;6156665;23;20420;-75
2022/07/16 03:02:39;;;;;;;16.23;10.95;;;;;;;15.37;68.48;102091.31;6156778;23;20008;-72
2022/07/16 03:05:05;;;;;;;18.33;10.77;;;;;;;15.29;68.24;102072.75;6156627;23;20068;-72
2022/07/16 03:07:31;;;;;;;18.40;10.27;;;;;;;15.26;68.38;102070.34;6156515;23;20005;-73
2022/07/16 03:09:56;;;;;;;16.42;10.05;;;;;;;15.33;68.36;102087.22;6156338;23;20375;-71
2022/07/16 03:12:22;;;;;;;15.77;10.07;;;;;;;15.31;67.70;102091.69;6156513;23;20006;-74
2022/07/16 03:14:47;;;;;;;17.27;10.45;;;;;;;15.32;67.92;102091.59;6156502;23;20512;-72
2022/07/16 03:17:13;;;;;;;16.13;9.80;;;;;;;15.38;68.02;102096.41;6156382;23;20038;-74
2022/07/16 03:19:39;;;;;;;14.82;10.13;;;;;;;15.30;68.14;102084.81;6156275;23;20013;-73
2022/07/16 03:22:04;;;;;;;17.13;10.23;;;;;;;15.30;67.66;102084.81;6156048;23;20010;-73
2022/07/16 03:24:30;;;;;;;19.30;10.25;;;;;;;15.38;68.01;102100.78;6156555;23;20005;-73
2022/07/16 03:26:55;;;;;;;15.35;9.68;;;;;;;15.38;67.95;102096.41;6130262;23;20438;-72
2022/07/16 03:29:21;;;;;;;17.38;10.38;;;;;;;15.42;68.43;102110.91;6156079;23;20456;-71
2022/07/16 03:31:46;;;;;;;18.63;10.98;;;;;;;15.42;68.27;102110.06;6156066;23;20097;-73
2022/07/16 03:34:11;;;;;;;19.00;10.52;;;;;;;15.44;68.14;102113.44;6156201;23;20427;-71
2022/07/16 03:36:37;;;;;;;16.63;10.18;;;;;;;15.35;68.58;102108.81;6156214;23;20005;-73
2022/07/16 03:39:04;;;;;;;14.77;9.50;;;;;;;15.48;68.38;102128.75;6155975;23;20281;-71
2022/07/16 03:41:31;;;;;;;15.15;8.85;;;;;;;15.43;68.99;102114.34;6156128;23;20028;-71
2022/07/16 03:43:57;;;;;;;12.95;8.57;;;;;;;15.55;68.74;102117.97;6156146;23;20016;-72
2022/07/16 03:46:22;;;;;;;16.42;9.40;;;;;;;15.56;69.19;102123.06;6156230;23;20029;-71
2022/07/16 03:48:47;;;;;;;16.40;9.70;;;;;;;15.46;69.53;102107.19;6156057;23;20001;-72
2022/07/16 03:51:12;;;;;;;17.77;10.15;;;;;;;15.57;69.33;102127.34;6156293;23;20009;-71
2022/07/16 03:53:38;;;;;;;14.82;8.90;;;;;;;15.54;70.08;102130.16;6156246;23;20001;-71
2022/07/16 03:56:04;;;;;;;15.73;9.77;;;;;;;15.41;70.26;102111.00;6156009;23;20006;-71
2022/07/16 03:58:30;;;;;;;18.65;9.55;;;;;;;15.54;70.66;102142.34;6155799;23;20009;-72
2022/07/16 04:00:56;;;;;;;14.70;8.93;;;;;;;15.52;70.84;102138.97;6155771;23;20058;-72
2022/07/16 04:03:22;;;;;;;15.52;9.25;;;;;;;15.37;70.91;102122.56;6154517;23;20094;-71
2022/07/16 04:05:48;;;;;;;14.68;8.38;;;;;;;15.41;71.50;102124.03;6155134;23;20043;-71
2022/07/16 04:08:13;;;;;;;15.27;9.02;;;;;;;15.50;71.86;102141.66;6155951;23;20005;-71
2022/07/16 04:10:38;;;;;;;15.75;8.38;;;;;;;15.48;72.21;102146.13;6156195;23;20388;-78
2022/07/16 04:13:04;;;;;;;15.23;8.30;;;;;;;15.38;72.47;102137.25;6155864;23;20005;-73
2022/07/16 04:15:30;;;;;;;14.57;7.82;;;;;;;15.43;72.87;102143.81;6155527;23;20001;-73
2022/07/16 04:17:55;;;;;;;13.93;8.23;;;;;;;15.39;73.40;102155.34;6155678;23;20396;-71
2022/07/16 04:20:21;;;;;;;12.43;8.07;;;;;;;15.38;74.35;102153.69;6155713;23;20037;-72
2022/07/16 04:22:46;;;;;;;12.57;7.07;;;;;;;15.37;74.84;102141.59;6155641;23;20060;-74
2022/07/16 04:25:13;;;;;;;15.73;7.25;;;;;;;15.36;75.01;102147.75;6155411;23;20009;-72
2022/07/16 04:27:42;;;;;;;14.60;7.82;;;;;;;15.38;75.66;102152.84;6155648;23;20001;-72
2022/07/16 04:30:08;;;;;;;14.90;8.02;;;;;;;15.42;76.53;102164.72;6155699;23;20002;-72
2022/07/16 04:32:35;;;;;;;13.75;7.70;;;;;;;15.37;77.23;102144.22;6155651;23;20301;-73
2022/07/16 04:35:00;;;;;;;13.02;7.18;;;;;;;15.42;77.09;102138.69;6155881;23;20002;-73
2022/07/16 04:37:26;;;;;;;12.63;7.35;;;;;;;15.53;77.79;102159.69;6155759;23;20084;-74
2022/07/16 04:39:51;;;;;;;14.23;7.15;;;;;;;15.53;77.68;102157.09;6155577;23;20036;-74
2022/07/16 04:42:17;;;;;;;16.95;7.82;;;;;;;15.51;78.08;102156.34;6155652;23;20001;-71
2022/07/16 04:44:42;;;;;;;14.80;7.95;;;;;;;15.57;77.98;102145.56;6155650;23;20131;-73
2022/07/16 04:47:08;;;;;;;17.48;8.75;;;;;;;15.81;78.19;102166.63;6128387;23;20005;-73
2022/07/16 04:49:33;;;;;;;13.02;7.35;;;;;;;15.84;78.07;102157.81;6155430;23;20002;-74
2022/07/16 04:51:58;;;;;;;15.63;7.78;;;;;;;15.90;78.52;102170.44;6155251;23;20080;-72
2022/07/16 04:54:24;;;;;;;13.55;8.05;;;;;;;15.89;79.40;102173.97;6155735;23;20001;-72
2022/07/16 04:56:49;;;;;;;18.48;8.13;;;;;;;15.82;79.76;102168.31;6155205;23;20036;-71
2022/07/16 04:59:14;;;;;;;14.90;7.38;;;;;;;15.92;80.06;102168.56;6129053;23;20001;-73
2022/07/16 05:01:40;;;;;;;14.77;7.22;;;;;;;15.96;80.48;102157.00;6155364;23;20419;-72
2022/07/16 05:04:06;;;;;;;15.00;7.05;;;;;;;16.17;80.09;102186.06;6155216;23;20013;-73
2022/07/16 05:06:31;;;;;;;14.30;7.07;;;;;;;16.20;81.20;102188.47;6155612;23;20009;-71
2022/07/16 05:08:57;;;;;;;12.18;6.40;;;;;;;16.25;81.48;102182.03;6155336;23;20411;-72
2022/07/16 05:11:22;;;;;;;13.57;6.63;;;;;;;16.55;81.88;102178.31;6155108;23;20020;-72
2022/07/16 05:13:50;;;;;;;12.38;6.00;;;;;;;18.29;74.73;102190.47;6154333;23;20048;-76
2022/07/16 05:16:15;;;;;;;10.25;4.90;;;;;;;19.76;69.05;102184.38;6155541;23;20427;-74
2022/07/16 05:18:41;;;;;;;11.38;5.35;;;;;;;21.08;64.38;102185.63;6154921;23;19998;-72
2022/07/16 05:21:06;;;;;;;9.25;4.75;;;;;;;22.19;60.41;102187.25;6154758;23;20024;-72
2022/07/16 05:23:34;;;;;;;12.30;4.85;;;;;;;23.56;55.75;102184.06;6155195;23;20006;-72
2022/07/16 05:25:59;;;;;;;9.73;4.28;;;;;;;24.07;52.96;102180.78;6155209;23;20052;-73
2022/07/16 05:28:24;;;;;;;11.35;4.90;;;;;;;24.57;51.96;102188.13;6155136;23;20001;-74
2022/07/16 05:30:50;;;;;;;8.05;4.20;;;;;;;24.72;51.65;102154.88;6155294;23;20486;-73
2022/07/16 05:33:15;;;;;;;8.73;4.30;;;;;;;25.66;48.52;102189.13;6155074;23;20017;-79
2022/07/16 05:35:40;;;;;;;9.77;4.00;;;;;;;25.99;47.57;102191.84;6154903;23;20428;-74
2022/07/16 05:38:05;;;;;;;10.75;4.22;;;;;;;25.67;47.55;102195.25;6155287;23;20371;-74
2022/07/16 05:40:31;;;;;;;11.10;4.20;;;;;;;25.59;47.33;102171.41;6154802;23;20044;-74
2022/07/16 05:42:56;;;;;;;10.70;3.40;;;;;;;26.03;45.83;102180.75;6154599;23;20086;-72
2022/07/16 05:45:21;;;;;;;9.25;3.10;;;;;;;26.48;45.28;102195.31;6154849;23;20021;-75
2022/07/16 05:47:47;;;;;;;9.35;3.28;;;;;;;27.09;43.69;102206.28;6155093;23;20005;-76
2022/07/16 05:50:12;;;;;;;7.97;3.10;;;;;;;27.00;43.25;102186.88;6154989;23;20016;-74
2022/07/16 05:52:37;;;;;;;8.93;3.03;;;;;;;26.82;44.41;102204.84;6155072;23;20009;-75
2022/07/16 05:55:03;;;;;;;8.38;3.58;;;;;;;26.51;44.19;102208.22;6154849;23;20002;-74
2022/07/16 05:57:28;;;;;;;8.55;2.72;;;;;;;25.72;45.22;102208.84;6154699;23;20016;-73
2022/07/16 05:59:54;;;;;;;6.50;3.10;;;;;;;24.46;48.37;102212.97;6155089;23;20032;-73
2022/07/16 06:02:19;;;;;;;9.40;3.40;;;;;;;24.09;50.02;102214.94;6154832;23;20081;-72
2022/07/16 06:04:44;;;;;;;7.97;3.42;;;;;;;24.73;48.68;102211.19;6154992;23;20006;-72
2022/07/16 06:07:10;;;;;;;10.15;3.45;;;;;;;24.94;48.17;102206.34;6154913;23;20002;-71
2022/07/16 06:09:35;;;;;;;6.40;2.80;;;;;;;24.92;47.70;102204.84;6155173;23;20009;-70
2022/07/16 06:12:01;;;;;;;7.97;2.85;;;;;;;25.65;46.39;102224.47;6154861;23;20008;-70
2022/07/16 06:14:26;;;;;;;9.02;2.60;;;;;;;26.66;44.42;102199.59;6154955;23;20009;-69
2022/07/16 06:16:52;;;;;;;8.35;2.63;;;;;;;27.81;42.01;102225.47;6154905;23;20001;-77
2022/07/16 06:19:17;;;;;;;5.82;2.33;;;;;;;28.20;40.29;102220.03;6154829;23;20005;-71
2022/07/16 06:21:42;;;;;;;5.28;2.20;;;;;;;27.92;41.10;102226.91;6154641;23;20013;-71
2022/07/16 06:24:08;;;;;;;8.10;2.08;;;;;;;28.63;39.61;102232.81;6154915;23;20002;-71
2022/07/16 06:26:33;;;;;;;8.10;2.17;;;;;;;29.37;38.13;102233.63;6154830;23;20002;-70
2022/07/16 06:28:59;;;;;;;6.25;2.42;;;;;;;28.82;37.36;102232.28;6154929;23;20013;-70
2022/07/16 06:31:24;;;;;;;6.35;2.10;;;;;;;28.07;39.24;102238.41;6154869;23;20076;-69
2022/07/16 06:33:49;;;;;;;8.25;2.60;;;;;;;28.63;38.72;102228.34;6155160;23;20366;-69
2022/07/16 06:36:15;;;;;;;8.07;2.33;;;;;;;29.61;36.69;102245.84;6154861;23;20006;-70
2022/07/16 06:38:40;;;;;;;7.18;2.08;;;;;;;29.19;35.96;102251.81;6154952;23;20084;-70
2022/07/16 06:41:05;;;;;;;6.15;2.08;;;;;;;28.57;37.08;102252.97;6155067;23;20036;-71
2022/07/16 06:43:31;;;;;;;4.40;1.77;;;;;;;28.08;37.19;102253.34;6155022;23;20096;-69
2022/07/16 06:45:56;;;;;;;4.93;1.73;;;;;;;27.82;37.11;102228.97;6155279;23;20005;-71
2022/07/16 06:48:22;;;;;;;7.13;1.73;;;;;;;28.35;37.20;102256.50;6156005;23;20012;-70
2022/07/16 06:50:48;;;;;;;7.20;1.63;;;;;;;27.89;36.27;102264.44;6156761;23;20005;-71
2022/07/16 06:53:13;;;;;;;5.57;2.28;;;;;;;27.64;38.29;102261.09;6156419;23;20005;-69
2022/07/16 06:55:38;;;;;;;5.68;1.73;;;;;;;27.06;38.50;102264.97;6156734;23;20006;-69
2022/07/16 06:58:04;;;;;;;4.57;1.88;;;;;;;26.62;39.93;102275.94;6156847;23;20001;-70
2022/07/16 07:00:29;;;;;;;6.80;1.80;;;;;;;26.07;40.23;102275.75;6156535;23;20024;-70
2022/07/16 07:02:55;;;;;;;5.85;1.70;;;;;;;25.71;40.53;102270.69;6156829;23;20056;-70
2022/07/16 07:05:20;;;;;;;8.77;1.90;;;;;;;25.73;39.56;102282.75;6154052;23;20320;-70
2022/07/16 07:07:45;;;;;;;6.53;1.80;;;;;;;26.01;37.65;102285.97;6156635;23;20079;-71
2022/07/16 07:10:11;;;;;;;4.63;1.58;;;;;;;26.13;37.63;102293.59;6156472;23;20006;-70
2022/07/16 07:12:36;;;;;;;6.65;1.73;;;;;;;25.92;37.92;102257.81;6156850;23;20064;-71
2022/07/16 07:15:03;;;;;;;6.95;1.90;;;;;;;26.28;38.19;102295.44;6156476;23;20009;-69
2022/07/16 07:17:29;;;;;;;3.50;1.75;;;;;;;26.00;39.08;102310.78;6156772;23;20002;-73
2022/07/16 07:19:54;;;;;;;5.53;1.80;;;;;;;25.77;38.87;102299.16;6156216;23;20013;-71
2022/07/16 07:22:19;;;;;;;5.75;2.20;;;;;;;26.13;38.31;102290.94;6156066;23;20018;-72
2022/07/16 07:24:45;;;;;;;3.80;1.60;;;;;;;26.41;37.26;102271.13;6156186;23;20064;-71
2022/07/16 07:27:10;;;;;;;8.00;1.98;;;;;;;27.18;36.28;102315.81;6156431;23;20002;-73
2022/07/16 07:29:36;;;;;;;5.97;1.70;;;;;;;27.65;35.36;102290.13;6156057;23;20044;-73
2022/07/16 07:32:03;;;;;;;7.47;1.60;;;;;;;27.44;35.43;102311.09;6155968;23;20036;-75
2022/07/16 07:34:28;;;;;;;10.73;2.13;;;;;;;26.84;36.66;102311.53;6156280;23;20327;-74
2022/07/16 07:36:55;;;;;;;8.15;1.90;;;;;;;26.00;38.69;102323.19;6156154;23;20005;-73
2022/07/16 07:39:20;;;;;;;5.85;1.80;;;;;;;25.65;38.41;102300.38;6154707;23;20005;-73
2022/07/16 07:41:45;;;;;;;7.20;1.90;;;;;;;25.84;38.60;102318.66;6156154;23;20033;-71
2022/07/16 07:44:11;;;;;;;8.68;1.85;;;;;;;25.30;40.04;102312.81;6156096;23;20008;-72
2022/07/16 07:46:36;;;;;;;7.50;2.17;;;;;;;24.42;42.15;102314.63;6129825;23;20010;-73
2022/07/16 07:49:02;;;;;;;7.47;2.03;;;;;;;23.83;43.29;102336.22;6156052;23;20002;-75
2022/07/16 07:51:27;;;;;;;5.03;2.03;;;;;;;23.33;44.43;102332.09;6156209;23;20010;-70
2022/07/16 07:53:52;;;;;;;6.88;2.03;;;;;;;23.05;45.76;102331.19;6155835;23;20001;-70
2022/07/16 07:56:18;;;;;;;11.90;2.38;;;;;;;22.82;46.77;102335.91;6156436;23;20013;-72
2022/07/16 07:58:43;;;;;;;6.97;1.98;;;;;;;22.71;46.48;102337.84;6155957;23;20328;-73
2022/07/16 08:01:09;;;;;;;6.43;2.15;;;;;;;22.49;48.11;102326.63;6155469;23;20061;-74
2022/07/16 08:03:34;;;;;;;8.77;2.38;;;;;;;22.37;46.80;102342.69;6155978;23;20012;-74
2022/07/16 08:06:00;;;;;;;8.45;2.28;;;;;;;21.87;47.65;102346.13;6156348;23;20371;-76
2022/07/16 08:08:25;;;;;;;5.53;2.08;;;;;;;21.51;48.57;102338.78;6156198;23;20028;-73
2022/07/16 08:10:50;;;;;;;6.70;2.22;;;;;;;21.15;49.15;102338.28;6155684;23;20060;-73
2022/07/16 08:13:17;;;;;;;4.75;1.65;;;;;;;20.87;50.00;102340.59;6156016;23;20005;-72
2022/07/16 08:15:43;;;;;;;8.77;2.03;;;;;;;20.85;50.71;102337.25;6155580;23;20005;-73
2022/07/16 08:18:09;;;;;;;7.57;2.20;;;;;;;20.58;49.90;102318.53;6155451;23;20284;-74
2022/07/16 08:20:34;;;;;;;9.10;2.25;;;;;;;20.80;52.22;102355.19;6155497;23;20060;-77
2022/07/16 08:22:59;;;;;;;4.43;1.95;;;;;;;20.86;51.13;102356.47;6155867;23;20013;-79
2022/07/16 08:28:08;;;;;;;7.25;2.40;;;;;;;20.86;49.69;102307.41;6155899;23;20020;-76
2022/07/16 08:30:34;;;;;;;6.03;2.17;;;;;;;21.12;50.56;102352.50;6155243;23;20005;-77
2022/07/16 08:32:59;;;;;;;20.30;2.90;;;;;;;21.33;51.25;102365.66;6155535;23;20009;-77
2022/07/16 08:35:24;;;;;;;7.22;1.80;;;;;;;21.41;49.79;102367.66;6155960;23;20043;-78
2022/07/16 08:37:50;;;;;;;6.60;2.20;;;;;;;21.17;47.74;102373.16;6156007;23;20075;-78
2022/07/16 08:40:20;;;;;;;7.13;2.05;;;;;;;20.82;47.37;102382.13;6155352;23;20013;-77
2022/07/16 08:42:46;;;;;;;4.75;1.75;;;;;;;20.67;48.33;102378.16;6155875;23;20009;-77
2022/07/16 08:45:13;;;;;;;5.90;1.92;;;;;;;20.74;50.07;102391.59;6155430;23;20019;-77
2022/07/16 08:47:40;;;;;;;6.93;1.90;;;;;;;20.76;49.32;102382.66;6155654;23;20076;-74
2022/07/16 08:50:08;;;;;;;10.07;2.03;;;;;;;21.04;49.20;102391.72;6155188;23;20009;-77
2022/07/16 08:52:38;;;;;;;5.40;2.10;;;;;;;21.21;50.22;102390.31;6155727;23;20002;-77
2022/07/16 08:55:03;;;;;;;4.93;1.80;;;;;;;21.35;49.16;102384.78;6155650;23;20033;-78
2022/07/16 08:57:29;;;;;;;7.60;2.13;;;;;;;21.61;49.24;102386.97;6155604;23;20462;-77
2022/07/16 08:59:55;;;;;;;8.23;2.00;;;;;;;21.66;48.68;102393.53;6155395;23;20092;-73
2022/07/16 09:02:20;;;;;;;5.72;2.10;;;;;;;21.63;47.14;102387.69;6155005;23;20084;-78
2022/07/16 09:04:46;;;;;;;6.78;2.13;;;;;;;21.79;47.52;102398.56;6129636;23;20013;-77
2022/07/16 09:07:12;;;;;;;7.40;2.17;;;;;;;22.06;47.89;102387.47;6154096;23;20002;-71
2022/07/16 09:09:38;;;;;;;5.60;1.88;;;;;;;22.42;46.43;102396.59;6156079;23;20031;-75
2022/07/16 09:12:03;;;;;;;6.03;1.83;;;;;;;22.70;45.36;102404.63;6155237;23;20077;-74
2022/07/16 09:14:29;;;;;;;6.78;1.80;;;;;;;22.75;44.41;102400.63;6155656;23;20427;-72
2022/07/16 09:16:54;;;;;;;7.60;2.00;;;;;;;22.61;44.73;102401.03;6154724;23;20012;-74
2022/07/16 09:19:27;;;;;;;9.32;2.13;;;;;;;22.55;44.90;102406.84;6154928;23;20001;-73
2022/07/16 09:22:13;;;;;;;6.15;2.03;;;;;;;22.71;46.06;102404.50;6154845;23;20017;-73
2022/07/16 09:24:43;;;;;;;7.32;1.77;;;;;;;23.02;45.63;102410.53;6155299;23;20009;-73
2022/07/16 09:27:14;;;;;;;5.75;1.48;;;;;;;23.13;44.48;102405.09;6155308;23;20014;-79
2022/07/16 09:29:54;;;;;;;6.05;1.73;;;;;;;23.00;45.61;102396.63;6155148;23;20009;-78
2022/07/16 09:32:38;;;;;;;7.40;1.88;;;;;;;23.14;44.39;102417.31;6155133;23;20001;-80
2022/07/16 09:35:09;;;;;;;5.85;1.90;;;;;;;22.68;44.30;102423.22;6154887;23;20002;-81
2022/07/16 09:37:47;;;;;;;6.63;1.83;;;;;;;22.39;45.63;102419.69;6155163;23;20539;-74
2022/07/16 09:40:13;;;;;;;8.38;2.00;;;;;;;22.33;45.37;102416.66;6153126;23;20402;-75
2022/07/16 09:42:39;;;;;;;7.95;1.67;;;;;;;22.27;46.04;102422.44;6155026;23;20448;-77
2022/07/16 09:45:06;;;;;;;7.15;2.13;;;;;;;22.18;45.99;102419.78;6155065;23;20080;-73
2022/07/16 09:47:32;;;;;;;5.20;2.10;;;;;;;22.23;45.17;102428.13;6155076;23;20092;-73
2022/07/16 09:49:57;;;;;;;6.68;1.73;;;;;;;22.26;45.59;102412.06;6155191;23;20025;-74
2022/07/16 09:52:31;;;;;;;6.57;2.00;;;;;;;22.35;44.63;102432.31;6155173;23;20056;-77
2022/07/16 09:54:58;;;;;;;4.93;1.90;;;;;;;22.16;44.88;102417.28;6155074;23;20317;-75
2022/07/16 09:57:27;;;;;;;9.15;1.85;;;;;;;22.02;44.62;102436.03;6154975;23;20056;-73
2022/07/16 09:59:54;;;;;;;5.47;1.98;;;;;;;21.86;43.73;102435.69;6153224;23;20451;-74
2022/07/16 10:02:19;;;;;;;5.63;1.60;;;;;;;21.66;45.93;102426.88;6154759;23;20014;-74
2022/07/16 10:04:44;;;;;;;4.63;1.70;;;;;;;21.69;45.81;102435.31;6154844;23;20009;-72
2022/07/16 10:07:10;;;;;;;5.20;1.98;;;;;;;21.81;44.26;102440.50;6155042;23;20012;-73
2022/07/16 10:09:36;;;;;;;5.65;1.95;;;;;;;21.86;44.43;102431.25;6128452;23;20020;-78
2022/07/16 10:12:06;;;;;;;5.15;1.60;;;;;;;21.91;44.15;102431.69;6154923;23;20086;-80
2022/07/16 10:14:37;;;;;;;6.43;1.53;;;;;;;21.99;44.18;102437.13;6155049;23;20001;-79
2022/07/16 10:17:21;;;;;;;4.47;1.50;;;;;;;21.37;44.04;102413.56;6155006;23;20245;-79
2022/07/16 10:20:00;;;;;;;4.97;1.73;;;;;;;21.66;44.10;102448.75;6142722;23;20006;-80
2022/07/16 10:22:34;;;;;;;5.03;1.55;;;;;;;21.79;44.19;102439.81;6155279;23;20084;-81
2022/07/16 10:24:59;;;;;;;6.63;1.70;;;;;;;21.56;42.81;102412.84;6156893;23;20006;-81
2022/07/16 10:27:30;;;;;;;6.22;1.60;;;;;;;21.48;42.65;102455.53;6156806;23;20013;-77
2022/07/16 10:30:10;;;;;;;4.13;1.63;;;;;;;21.34;43.72;102455.88;6157139;23;20012;-77
2022/07/16 10:33:05;;;;;;;7.50;1.92;;;;;;;21.60;44.01;102466.81;6156805;23;20029;-80
2022/07/16 10:35:40;;;;;;;9.48;2.10;;;;;;;21.65;44.42;102460.22;6157338;23;20016;-88
2022/07/16 10:38:07;;;;;;;7.88;1.50;;;;;;;21.61;44.09;102461.44;6157142;23;20015;-87
2022/07/16 10:40:34;;;;;;;3.92;1.60;;;;;;;21.38;41.84;102465.16;6157108;23;20084;-83
2022/07/16 10:43:21;;;;;;;8.00;1.80;;;;;;;21.35;42.98;102463.63;6156455;23;20084;-85
2022/07/16 10:45:55;;;;;;;7.07;1.85;;;;;;;21.44;44.21;102469.91;6156570;23;20016;-84
2022/07/16 10:48:25;;;;;;;4.72;1.73;;;;;;;21.59;42.71;102462.53;6156408;23;20032;-84
2022/07/16 10:51:10;;;;;;;8.77;1.80;;;;;;;21.81;42.81;102467.63;6156334;23;20383;-81
2022/07/16 10:53:57;;;;;;;7.00;1.75;;;;;;;21.95;42.62;102479.63;6156490;23;20001;-85
2022/07/16 10:56:35;;;;;;;4.75;1.50;;;;;;;21.92;42.81;102477.22;6156571;23;20052;-81
2022/07/16 10:59:05;;;;;;;6.63;1.60;;;;;;;21.81;43.87;102482.56;6157034;23;20048;-82
2022/07/16 11:01:32;;;;;;;5.93;1.85;;;;;;;21.67;44.60;102452.19;6156642;23;20010;-83
2022/07/16 11:03:57;;;;;;;7.10;1.65;;;;;;;21.90;42.91;102477.38;6156014;23;20486;-82
2022/07/16 11:06:23;;;;;;;7.95;1.80;;;;;;;21.80;43.49;102471.22;6156058;23;20001;-84
2022/07/16 11:09:00;;;;;;;5.10;1.70;;;;;;;21.87;44.15;102474.19;6156578;23;20017;-79
2022/07/16 11:11:33;;;;;;;6.03;2.03;;;;;;;22.22;43.19;102469.41;6156625;23;20010;-80
2022/07/16 11:13:59;;;;;;;7.47;1.58;;;;;;;22.43;41.43;102479.84;6156308;23;20051;-80
2022/07/16 11:16:25;;;;;;;7.88;1.33;;;;;;;22.46;42.13;102473.47;6156539;23;20053;-79
2022/07/16 11:18:50;;;;;;;6.07;2.00;;;;;;;22.58;41.41;102472.41;6155754;23;20001;-81
2022/07/16 11:21:16;;;;;;;7.47;2.00;;;;;;;22.20;40.82;102421.31;6130781;23;20018;-83
2022/07/16 11:23:50;;;;;;;4.47;1.55;;;;;;;22.49;43.49;102468.78;6126298;23;20048;-84